createdAt,value
2023-03-06T00:00:05.194Z,98193.20
2023-03-06T00:03:04.638Z,98179.59
2023-03-06T00:05:37.503Z,98178.19
2023-03-06T00:08:10.470Z,98174.35
2023-03-06T00:10:43.551Z,98178.05
2023-03-06T00:13:19.274Z,98188.66
2023-03-06T00:15:52.162Z,98191.33
2023-03-06T00:18:24.882Z,98187.52
2023-03-06T00:21:00.730Z,98184.14
2023-03-06T00:23:33.395Z,98182.85
2023-03-06T00:26:08.523Z,98180.00
2023-03-06T00:28:42.208Z,98177.87
2023-03-06T00:31:15.102Z,98175.66
2023-03-06T00:33:48.026Z,98173.75
2023-03-06T00:36:21.186Z,98170.60
2023-03-06T00:38:55.707Z,98170.70
2023-03-06T00:41:30.909Z,98166.85
2023-03-06T00:44:03.881Z,98171.10
2023-03-06T00:46:36.657Z,98167.26
2023-03-06T00:49:09.735Z,98166.26
2023-03-06T00:51:44.891Z,98165.29
2023-03-06T00:54:18.015Z,98168.96
2023-03-06T00:56:53.468Z,98166.13
2023-03-06T00:59:27.671Z,98168.46
2023-03-06T01:02:01.182Z,98165.42
2023-03-06T01:04:34.358Z,98167.88
2023-03-06T01:07:07.429Z,98167.55
2023-03-06T01:09:40.284Z,98163.59
2023-03-06T01:12:13.393Z,98163.54
2023-03-06T01:14:47.515Z,98162.80
2023-03-06T01:17:20.542Z,98165.35
2023-03-06T01:19:53.465Z,98162.54
2023-03-06T01:22:26.272Z,98164.39
2023-03-06T01:24:58.996Z,98167.48
2023-03-06T01:27:33.746Z,98161.09
2023-03-06T01:30:07.639Z,98159.73
2023-03-06T01:32:40.498Z,98158.87
2023-03-06T01:35:14.584Z,98152.69
2023-03-06T01:37:47.413Z,98150.09
2023-03-06T01:40:21.122Z,98153.02
2023-03-06T01:42:55.201Z,98149.33
2023-03-06T01:46:02.599Z,98152.72
2023-03-06T01:48:35.736Z,98151.64
2023-03-06T01:51:08.705Z,98150.07
2023-03-06T01:53:43.443Z,98153.19
2023-03-06T01:56:17.262Z,98153.86
2023-03-06T01:58:51.589Z,98153.00
2023-03-06T02:01:24.764Z,98152.44
2023-03-06T02:03:58.531Z,98148.80
2023-03-06T02:06:32.171Z,98148.08
2023-03-06T02:09:09.560Z,98148.27
2023-03-06T02:11:44.415Z,98145.86
2023-03-06T02:14:18.621Z,98143.45
2023-03-06T02:16:51.943Z,98149.16
2023-03-06T02:19:39.409Z,98145.19
2023-03-06T02:22:12.172Z,98145.16
2023-03-06T02:24:53.241Z,98145.33
2023-03-06T02:27:28.031Z,98135.65
2023-03-06T02:30:01.382Z,98132.53
2023-03-06T02:32:34.900Z,98148.35
2023-03-06T02:35:19.238Z,98154.66
2023-03-06T02:37:52.996Z,98159.06
2023-03-06T02:40:28.630Z,98155.21
2023-03-06T02:43:02.649Z,98155.50
2023-03-06T02:45:38.779Z,98154.44
2023-03-06T02:48:12.303Z,98156.44
2023-03-06T02:50:46.285Z,98155.04
2023-03-06T02:53:21.443Z,98150.20
2023-03-06T02:55:53.971Z,98142.45
2023-03-06T02:58:29.418Z,98143.81
2023-03-06T03:01:02.232Z,98143.45
2023-03-06T03:03:35.365Z,98150.98
2023-03-06T03:06:11.425Z,98150.29
2023-03-06T03:08:44.318Z,98149.40
2023-03-06T03:11:17.704Z,98151.89
2023-03-06T03:13:50.805Z,98149.92
2023-03-06T03:16:27.909Z,98148.69
2023-03-06T03:19:03.242Z,98144.20
2023-03-06T03:21:36.790Z,98142.48
2023-03-06T03:24:10.656Z,98132.52
2023-03-06T03:26:43.537Z,98128.05
2023-03-06T03:29:20.453Z,98136.32
2023-03-06T03:31:53.343Z,98142.84
2023-03-06T03:34:29.715Z,98143.50
2023-03-06T03:37:03.130Z,98142.41
2023-03-06T03:39:37.560Z,98145.62
2023-03-06T03:42:10.838Z,98146.08
2023-03-06T03:44:44.673Z,98152.63
2023-03-06T03:47:17.497Z,98155.38
2023-03-06T03:49:50.381Z,98146.80
2023-03-06T03:52:25.692Z,98153.19
2023-03-06T03:54:58.798Z,98154.55
2023-03-06T03:57:31.869Z,98155.95
2023-03-06T04:00:08.141Z,98155.67
2023-03-06T04:02:48.275Z,98151.26
2023-03-06T04:05:41.338Z,98148.76
2023-03-06T04:08:14.871Z,98145.56
2023-03-06T04:10:51.584Z,98150.42
2023-03-06T04:13:26.111Z,98147.17
2023-03-06T04:16:04.080Z,98145.29
2023-03-06T04:18:37.886Z,98143.40
2023-03-06T04:21:11.263Z,98142.71
2023-03-06T04:23:44.804Z,98144.77
2023-03-06T04:26:17.776Z,98140.11
2023-03-06T04:28:51.296Z,98142.86
2023-03-06T04:31:24.728Z,98144.41
2023-03-06T04:33:57.738Z,98148.52
2023-03-06T04:36:33.741Z,98145.44
2023-03-06T04:39:10.692Z,98148.88
2023-03-06T04:41:43.744Z,98151.13
2023-03-06T04:44:16.511Z,98149.05
2023-03-06T04:46:52.491Z,98143.19
2023-03-06T04:49:25.357Z,98146.97
2023-03-06T04:51:58.195Z,98147.30
2023-03-06T04:54:30.923Z,98148.45
2023-03-06T04:57:04.175Z,98150.50
2023-03-06T04:59:39.297Z,98149.27
2023-03-06T05:02:12.002Z,98151.11
2023-03-06T05:04:45.073Z,98148.48
2023-03-06T05:07:17.804Z,98152.73
2023-03-06T05:09:50.387Z,98157.84
2023-03-06T05:12:24.321Z,98153.97
2023-03-06T05:14:57.285Z,98156.83
2023-03-06T05:17:30.379Z,98152.09
2023-03-06T05:20:06.207Z,98148.40
2023-03-06T05:22:39.106Z,98140.23
2023-03-06T05:25:14.811Z,98145.48
2023-03-06T05:27:48.205Z,98152.16
2023-03-06T05:30:23.399Z,98155.71
2023-03-06T05:32:58.376Z,98157.20
2023-03-06T05:35:45.866Z,98160.45
2023-03-06T05:38:24.494Z,98157.52
2023-03-06T05:40:57.392Z,98153.21
2023-03-06T05:43:33.357Z,98152.20
2023-03-06T05:46:10.544Z,98151.05
2023-03-06T05:48:45.326Z,98149.55
2023-03-06T05:51:19.673Z,98145.50
2023-03-06T05:53:52.570Z,98152.00
2023-03-06T05:56:25.399Z,98153.50
2023-03-06T05:58:59.576Z,98158.11
2023-03-06T06:01:32.221Z,98163.80
2023-03-06T06:04:05.010Z,98159.91
2023-03-06T06:06:37.838Z,98157.48
2023-03-06T06:09:13.989Z,98154.58
2023-03-06T06:11:47.178Z,98159.56
2023-03-06T06:14:19.958Z,98157.95
2023-03-06T06:16:53.551Z,98154.38
2023-03-06T06:19:29.601Z,98155.58
2023-03-06T06:22:04.117Z,98155.16
2023-03-06T06:24:36.931Z,98158.73
2023-03-06T06:27:10.400Z,98162.91
2023-03-06T06:29:43.399Z,98167.77
2023-03-06T06:32:16.411Z,98169.34
2023-03-06T06:34:49.454Z,98165.14
2023-03-06T06:37:22.312Z,98168.26
2023-03-06T06:39:55.180Z,98163.52
2023-03-06T06:42:36.984Z,98161.40
2023-03-06T06:45:14.297Z,98159.73
2023-03-06T06:47:47.127Z,98154.80
2023-03-06T06:50:20.178Z,98157.02
2023-03-06T06:52:53.088Z,98163.36
2023-03-06T06:55:25.865Z,98166.33
2023-03-06T06:57:58.876Z,98169.41
2023-03-06T07:00:32.275Z,98171.66
2023-03-06T07:03:05.298Z,98174.15
2023-03-06T07:05:38.077Z,98173.74
2023-03-06T07:08:11.013Z,98176.36
2023-03-06T07:10:43.963Z,98182.55
2023-03-06T07:13:17.574Z,98187.50
2023-03-06T07:15:50.722Z,98186.77
2023-03-06T07:18:23.236Z,98188.52
2023-03-06T07:20:56.986Z,98189.98
2023-03-06T07:23:30.582Z,98188.63
2023-03-06T07:26:03.446Z,98192.11
2023-03-06T07:28:51.268Z,98189.25
2023-03-06T07:31:27.545Z,98195.11
2023-03-06T07:34:00.529Z,98187.98
2023-03-06T07:36:36.042Z,98184.13
2023-03-06T07:39:09.058Z,98190.48
2023-03-06T07:41:42.121Z,98191.98
2023-03-06T07:44:15.012Z,98197.51
2023-03-06T07:46:49.125Z,98194.00
2023-03-06T07:49:21.867Z,98193.23
2023-03-06T07:51:54.380Z,98197.98
2023-03-06T07:54:27.116Z,98199.92
2023-03-06T07:57:01.813Z,98198.61
2023-03-06T07:59:34.553Z,98197.81
2023-03-06T08:02:07.301Z,98199.94
2023-03-06T08:04:39.985Z,98195.14
2023-03-06T08:07:13.374Z,98201.23
2023-03-06T08:09:47.449Z,98193.12
2023-03-06T08:12:19.948Z,98190.88
2023-03-06T08:14:52.525Z,98189.55
2023-03-06T08:17:25.368Z,98184.23
2023-03-06T08:19:58.154Z,98183.79
2023-03-06T08:22:31.926Z,98181.03
2023-03-06T08:25:06.063Z,98179.69
2023-03-06T08:27:39.186Z,98178.83
2023-03-06T08:30:15.081Z,98178.84
2023-03-06T08:32:47.992Z,98180.77
2023-03-06T08:35:22.592Z,98185.46
2023-03-06T08:37:55.214Z,98183.23
2023-03-06T08:40:30.720Z,98181.67
2023-03-06T08:43:04.128Z,98180.65
2023-03-06T08:45:36.827Z,98182.19
2023-03-06T08:48:09.369Z,98183.76
2023-03-06T08:50:43.899Z,98184.97
2023-03-06T08:53:16.648Z,98184.95
2023-03-06T08:55:49.817Z,98180.22
2023-03-06T08:58:22.638Z,98179.14
2023-03-06T09:00:55.613Z,98175.80
2023-03-06T09:03:28.297Z,98175.06
2023-03-06T09:06:02.501Z,98178.86
2023-03-06T09:08:35.194Z,98171.16
2023-03-06T09:11:09.584Z,98169.42
2023-03-06T09:13:44.569Z,98168.90
2023-03-06T09:16:17.347Z,98165.77
2023-03-06T09:18:54.100Z,98166.60
2023-03-06T09:21:28.813Z,98167.10
2023-03-06T09:24:03.942Z,98161.71
2023-03-06T09:26:46.171Z,98162.59
2023-03-06T09:29:20.158Z,98158.58
2023-03-06T09:31:52.684Z,98155.22
2023-03-06T09:34:27.790Z,98152.77
2023-03-06T09:37:03.053Z,98150.16
2023-03-06T09:39:35.847Z,98154.40
2023-03-06T09:42:14.917Z,98152.31
2023-03-06T09:44:53.203Z,98149.05
2023-03-06T09:47:51.831Z,98153.57
2023-03-06T09:50:35.455Z,98152.99
2023-03-06T09:53:33.984Z,98154.48
2023-03-06T09:56:14.990Z,98149.46
2023-03-06T09:58:52.909Z,98151.73
2023-03-06T10:01:29.464Z,98147.19
2023-03-06T10:04:10.693Z,98135.65
2023-03-06T10:06:50.399Z,98137.41
2023-03-06T10:09:26.659Z,98136.00
2023-03-06T10:12:02.182Z,98132.28
2023-03-06T10:14:39.344Z,98135.73
2023-03-06T10:17:21.528Z,98134.77
2023-03-06T10:19:55.458Z,98129.79
2023-03-06T10:22:33.133Z,98130.98
2023-03-06T10:25:14.443Z,98124.68
2023-03-06T10:27:51.391Z,98126.20
2023-03-06T10:30:35.108Z,98121.09
2023-03-06T10:33:19.456Z,98118.98
2023-03-06T10:35:55.022Z,98110.10
2023-03-06T10:38:38.496Z,98109.13
2023-03-06T10:41:23.187Z,98105.90
2023-03-06T10:44:25.729Z,98098.85
2023-03-06T10:46:58.470Z,98097.43
2023-03-06T10:49:34.664Z,98091.33
2023-03-06T10:52:22.083Z,98094.44
2023-03-06T10:55:27.648Z,98088.98
2023-03-06T10:58:17.796Z,98084.45
2023-03-06T11:01:01.148Z,98080.25
2023-03-06T11:03:34.348Z,98080.49
2023-03-06T11:06:13.080Z,98083.98
2023-03-06T11:08:47.515Z,98078.06
2023-03-06T11:11:37.084Z,98075.09
2023-03-06T11:14:18.509Z,98070.19
2023-03-06T11:16:53.585Z,98067.92
2023-03-06T11:19:29.810Z,98065.64
2023-03-06T11:22:19.392Z,98054.23
2023-03-06T11:24:55.438Z,98055.36
2023-03-06T11:27:35.125Z,98048.56
2023-03-06T11:30:19.146Z,98048.80
2023-03-06T11:32:56.551Z,98034.66
2023-03-06T11:35:35.856Z,98034.08
2023-03-06T11:38:18.039Z,98035.45
2023-03-06T11:40:55.876Z,98034.84
2023-03-06T11:43:37.053Z,98033.63
2023-03-06T11:46:17.752Z,98029.56
2023-03-06T11:48:58.465Z,98023.91
2023-03-06T11:51:36.247Z,98030.73
2023-03-06T11:54:10.988Z,98024.70
2023-03-06T11:56:53.223Z,98023.75
2023-03-06T11:59:52.381Z,98026.77
2023-03-06T12:02:39.561Z,98024.48
2023-03-06T12:05:28.490Z,98017.09
2023-03-06T12:08:12.878Z,98012.30
2023-03-06T12:10:52.387Z,98009.63
2023-03-06T12:13:42.534Z,98002.18
2023-03-06T12:16:42.454Z,97995.38
2023-03-06T12:19:33.322Z,97994.42
2023-03-06T12:22:17.242Z,97986.63
2023-03-06T12:25:07.922Z,97987.41
2023-03-06T12:27:47.494Z,97989.31
2023-03-06T12:30:33.507Z,97994.17
2023-03-06T12:33:21.216Z,97992.34
2023-03-06T12:36:15.549Z,97996.30
2023-03-06T12:39:01.140Z,97997.98
2023-03-06T12:41:44.884Z,97991.88
2023-03-06T12:44:36.063Z,97995.08
2023-03-06T12:47:13.011Z,97993.51
2023-03-06T12:49:51.519Z,97992.89
2023-03-06T12:52:30.512Z,97988.86
2023-03-06T12:55:07.299Z,97990.52
2023-03-06T12:57:41.822Z,97989.65
2023-03-06T13:00:58.711Z,97984.91
2023-03-06T13:03:54.641Z,97978.52
2023-03-06T13:06:52.162Z,97981.01
2023-03-06T13:09:34.815Z,97980.55
2023-03-06T13:12:29.994Z,97974.60
2023-03-06T13:15:20.781Z,97971.70
2023-03-06T13:17:53.530Z,97968.92
2023-03-06T13:20:40.948Z,97973.61
2023-03-06T13:23:44.080Z,97967.73
2023-03-06T13:26:55.431Z,97968.10
2023-03-06T13:29:55.122Z,97962.82
2023-03-06T13:32:34.994Z,97957.30
2023-03-06T13:35:49.685Z,97952.45
2023-03-06T13:39:07.344Z,97951.62
2023-03-06T13:41:57.372Z,97948.44
2023-03-06T13:44:51.153Z,97941.13
2023-03-06T13:50:50.071Z,97934.95
2023-03-06T13:53:55.309Z,97932.60
2023-03-06T13:57:00.514Z,97928.11
2023-03-06T14:00:03.087Z,97922.52
2023-03-06T14:03:06.656Z,97919.98
2023-03-06T14:05:47.467Z,97920.02
2023-03-06T14:08:22.025Z,97917.54
2023-03-06T14:11:06.187Z,97916.88
2023-03-06T14:13:49.109Z,97911.36
2023-03-06T14:16:24.959Z,97905.63
2023-03-06T14:18:58.833Z,97906.11
2023-03-06T14:21:39.516Z,97899.84
2023-03-06T14:24:20.321Z,97896.91
2023-03-06T14:26:54.306Z,97894.48
2023-03-06T14:29:29.204Z,97893.22
2023-03-06T14:32:06.074Z,97894.87
2023-03-06T14:34:45.584Z,97897.09
2023-03-06T14:37:26.939Z,97895.67
2023-03-06T14:39:59.773Z,97892.77
2023-03-06T14:42:33.172Z,97891.21
2023-03-06T14:45:21.610Z,97887.50
2023-03-06T14:47:55.238Z,97888.07
2023-03-06T14:50:30.345Z,97886.17
2023-03-06T14:53:07.785Z,97887.75
2023-03-06T14:55:51.742Z,97885.77
2023-03-06T14:58:31.158Z,97890.17
2023-03-06T15:01:07.225Z,97898.59
2023-03-06T15:03:48.896Z,97902.43
2023-03-06T15:06:21.464Z,97908.06
2023-03-06T15:09:02.463Z,97918.47
2023-03-06T15:12:00.363Z,97918.59
2023-03-06T15:14:38.867Z,97917.10
2023-03-06T15:17:27.540Z,97915.35
2023-03-06T15:20:02.761Z,97916.87
2023-03-06T15:22:39.018Z,97915.05
2023-03-06T15:25:26.851Z,97917.77
2023-03-06T15:28:02.967Z,97916.63
2023-03-06T15:30:37.135Z,97920.67
2023-03-06T15:33:26.592Z,97924.38
2023-03-06T15:36:01.944Z,97928.23
2023-03-06T15:38:41.993Z,97922.38
2023-03-06T15:41:29.833Z,97921.71
2023-03-06T15:44:04.351Z,97919.45
2023-03-06T15:46:37.805Z,97922.80
2023-03-06T15:49:18.735Z,97924.05
2023-03-06T15:51:53.774Z,97926.89
2023-03-06T15:54:26.692Z,97919.48
2023-03-06T15:57:01.197Z,97912.74
2023-03-06T15:59:44.931Z,97907.21
2023-03-06T16:02:22.056Z,97903.24
2023-03-06T16:04:55.109Z,97899.98
2023-03-06T16:07:29.300Z,97901.90
2023-03-06T16:10:02.043Z,97897.77
2023-03-06T16:12:35.325Z,97899.69
2023-03-06T16:15:17.910Z,97898.69
2023-03-06T16:17:53.050Z,97899.20
2023-03-06T16:20:28.175Z,97894.71
2023-03-06T16:23:01.238Z,97894.73
2023-03-06T16:25:34.386Z,97897.67
2023-03-06T16:28:11.680Z,97901.32
2023-03-06T16:30:53.680Z,97899.42
2023-03-06T16:33:36.617Z,97892.32
2023-03-06T16:36:18.025Z,97888.17
2023-03-06T16:38:52.018Z,97889.23
2023-03-06T16:41:24.643Z,97889.23
2023-03-06T16:43:57.217Z,97884.53
2023-03-06T16:46:30.624Z,97883.31
2023-03-06T16:49:15.220Z,97882.29
2023-03-06T16:51:50.412Z,97886.65
2023-03-06T16:54:26.179Z,97889.59
2023-03-06T16:56:58.792Z,97890.80
2023-03-06T16:59:31.770Z,97893.77
2023-03-06T17:02:04.561Z,97892.55
2023-03-06T17:04:37.612Z,97895.15
2023-03-06T17:07:10.454Z,97908.86
2023-03-06T17:09:43.635Z,97919.25
2023-03-06T17:12:16.728Z,97912.49
2023-03-06T17:14:49.763Z,97913.72
2023-03-06T17:17:22.563Z,97913.20
2023-03-06T17:20:16.885Z,97912.48
2023-03-06T17:22:51.212Z,97913.88
2023-03-06T17:25:35.674Z,97917.16
2023-03-06T17:28:08.641Z,97918.20
2023-03-06T17:31:03.515Z,97914.90
2023-03-06T17:33:39.450Z,97917.99
2023-03-06T17:36:22.673Z,97920.23
2023-03-06T17:39:05.644Z,97928.86
2023-03-06T17:41:38.354Z,97931.60
2023-03-06T17:44:12.435Z,97935.38
2023-03-06T17:46:48.596Z,97939.14
2023-03-06T17:49:24.099Z,97936.34
2023-03-06T17:51:59.878Z,97939.23
2023-03-06T17:54:33.343Z,97941.81
2023-03-06T17:57:06.681Z,97942.29
2023-03-06T17:59:46.839Z,97940.35
2023-03-06T18:02:21.285Z,97938.41
2023-03-06T18:04:56.538Z,97938.22
2023-03-06T18:07:29.203Z,97932.48
2023-03-06T18:10:01.736Z,97932.30
2023-03-06T18:12:34.644Z,97929.00
2023-03-06T18:15:12.572Z,97924.99
2023-03-06T18:17:45.241Z,97923.06
2023-03-06T18:20:20.223Z,97923.24
2023-03-06T18:23:04.734Z,97918.96
2023-03-06T18:25:47.634Z,97921.04
2023-03-06T18:28:20.447Z,97923.29
2023-03-06T18:30:58.741Z,97920.34
2023-03-06T18:33:33.018Z,97917.02
2023-03-06T18:36:09.772Z,97918.05
2023-03-06T18:38:44.091Z,97923.58
2023-03-06T18:41:38.429Z,97927.90
2023-03-06T18:44:31.266Z,97925.14
2023-03-06T18:47:25.300Z,97921.85
2023-03-06T18:50:18.873Z,97922.54
2023-03-06T18:53:12.766Z,97923.75
2023-03-06T18:55:56.733Z,97923.58
2023-03-06T18:58:50.434Z,97928.25
2023-03-06T19:01:25.560Z,97926.00
2023-03-06T19:04:00.239Z,97927.90
2023-03-06T19:06:33.307Z,97929.98
2023-03-06T19:09:07.019Z,97928.97
2023-03-06T19:11:39.826Z,97928.14
2023-03-06T19:14:15.467Z,97924.50
2023-03-06T19:16:50.475Z,97923.64
2023-03-06T19:19:26.381Z,97921.92
2023-03-06T19:22:02.406Z,97919.32
2023-03-06T19:24:55.302Z,97920.69
2023-03-06T19:27:27.863Z,97918.94
2023-03-06T19:30:17.529Z,97922.38
2023-03-06T19:33:03.098Z,97923.06
2023-03-06T19:35:55.987Z,97922.53
2023-03-06T19:38:29.946Z,97920.29
2023-03-06T19:41:16.349Z,97921.48
2023-03-06T19:44:10.642Z,97916.98
2023-03-06T19:47:03.369Z,97915.39
2023-03-06T19:49:57.659Z,97914.67
2023-03-06T19:52:33.264Z,97913.64
2023-03-06T19:55:10.881Z,97913.28
2023-03-06T19:57:46.703Z,97910.34
2023-03-06T20:00:30.578Z,97911.88
2023-03-06T20:03:05.779Z,97908.56
2023-03-06T20:05:51.214Z,97909.58
2023-03-06T20:08:44.712Z,97912.69
2023-03-06T20:11:37.521Z,97913.37
2023-03-06T20:14:30.442Z,97913.37
2023-03-06T20:17:05.522Z,97914.92
2023-03-06T20:19:48.167Z,97911.64
2023-03-06T20:22:31.855Z,97912.48
2023-03-06T20:25:08.524Z,97912.65
2023-03-06T20:28:01.333Z,97912.60
2023-03-06T20:30:54.219Z,97910.00
2023-03-06T20:33:36.240Z,97908.96
2023-03-06T20:36:18.828Z,97908.98
2023-03-06T20:38:51.832Z,97903.45
2023-03-06T20:41:34.826Z,97900.52
2023-03-06T20:44:18.874Z,97900.51
2023-03-06T20:46:52.224Z,97905.16
2023-03-06T20:49:28.552Z,97903.93
2023-03-06T20:52:31.619Z,97899.73
2023-03-06T20:55:08.474Z,97899.89
2023-03-06T20:58:01.386Z,97891.24
2023-03-06T21:00:54.187Z,97891.23
2023-03-06T21:03:27.130Z,97886.57
2023-03-06T21:06:09.121Z,97882.92
2023-03-06T21:09:01.402Z,97882.89
2023-03-06T21:11:44.317Z,97882.52
2023-03-06T21:14:20.747Z,97881.99
2023-03-06T21:17:13.967Z,97885.09
2023-03-06T21:20:00.564Z,97883.70
2023-03-06T21:22:46.798Z,97883.86
2023-03-06T21:25:25.280Z,97883.52
2023-03-06T21:28:08.003Z,97880.25
2023-03-06T21:30:49.353Z,97875.42
2023-03-06T21:33:42.692Z,97875.42
2023-03-06T21:36:37.306Z,97873.19
2023-03-06T21:39:30.127Z,97871.64
2023-03-06T21:42:24.144Z,97869.41
2023-03-06T21:45:07.877Z,97868.07
2023-03-06T21:48:01.462Z,97865.15
2023-03-06T21:50:54.240Z,97868.09
2023-03-06T21:53:48.069Z,97863.42
2023-03-06T21:56:40.721Z,97863.79
2023-03-06T21:59:33.476Z,97860.68
2023-03-06T22:02:11.497Z,97861.89
2023-03-06T22:04:53.368Z,97857.05
2023-03-06T22:07:47.542Z,97859.44
2023-03-06T22:10:42.857Z,97863.34
2023-03-06T22:13:35.753Z,97865.19
2023-03-06T22:16:28.840Z,97865.63
2023-03-06T22:19:21.728Z,97865.55
2023-03-06T22:22:04.996Z,97866.02
2023-03-06T22:24:56.379Z,97864.05
2023-03-06T22:27:33.298Z,97864.36
2023-03-06T22:30:26.033Z,97867.41
2023-03-06T22:33:01.904Z,97870.16
2023-03-06T22:35:34.678Z,97872.57
2023-03-06T22:38:08.277Z,97881.58
2023-03-06T22:40:40.943Z,97885.42
2023-03-06T22:43:13.654Z,97886.84
2023-03-06T22:45:46.563Z,97892.10
2023-03-06T22:48:19.082Z,97898.35
2023-03-06T22:50:54.728Z,97897.71
2023-03-06T22:53:27.273Z,97901.70
2023-03-06T22:56:02.031Z,97892.00
2023-03-06T22:58:37.342Z,97895.42
2023-03-06T23:01:12.402Z,97898.17
2023-03-06T23:03:48.231Z,97898.15
2023-03-06T23:06:23.782Z,97897.98
2023-03-06T23:08:58.110Z,97898.33
2023-03-06T23:11:31.927Z,97901.27
2023-03-06T23:14:22.972Z,97899.19
2023-03-06T23:17:13.884Z,97897.13
2023-03-06T23:20:10.034Z,97895.07
2023-03-06T23:23:00.982Z,97891.44
2023-03-06T23:25:48.992Z,97890.05
2023-03-06T23:28:21.551Z,97886.74
2023-03-06T23:30:54.280Z,97886.15
2023-03-06T23:33:27.124Z,97882.84
2023-03-06T23:36:02.742Z,97873.29
2023-03-06T23:38:36.111Z,97871.01
2023-03-06T23:41:11.887Z,97874.61
2023-03-06T23:43:45.102Z,97873.91
2023-03-06T23:46:18.646Z,97878.39
2023-03-06T23:48:51.734Z,97880.10
2023-03-06T23:51:25.125Z,97883.50
2023-03-06T23:53:59.558Z,97884.19
2023-03-06T23:56:32.326Z,97881.97
2023-03-06T23:59:04.845Z,97874.75
